createdAt,value
2023-04-05T09:13:53.182Z,5.91
2023-04-05T12:58:06.027Z,6.38
2023-04-05T13:40:22.684Z,6.03
2023-04-05T13:42:53.368Z,5.97
2023-04-05T14:10:27.635Z,5.85
2023-04-05T14:12:58.958Z,5.88
2023-04-05T14:15:33.528Z,5.89
2023-04-05T14:18:00.371Z,5.88
2023-04-05T14:20:29.385Z,5.85
2023-04-05T14:22:56.015Z,5.83
2023-04-05T14:25:23.059Z,5.84
2023-04-05T14:27:49.961Z,5.85
2023-04-05T14:30:16.722Z,5.85
2023-04-05T14:32:44.711Z,5.82
2023-04-05T14:35:11.640Z,5.78
2023-04-05T14:37:38.560Z,5.73
2023-04-05T14:40:05.760Z,5.72
2023-04-05T14:42:47.740Z,5.70
2023-04-05T14:45:22.671Z,5.75
2023-04-05T14:47:51.413Z,6.09
2023-04-05T14:50:18.093Z,6.39
2023-04-05T14:52:45.152Z,6.74
2023-04-05T14:55:12.842Z,6.99
2023-04-05T14:57:42.309Z,7.22
2023-04-05T15:00:13.132Z,7.20
2023-04-05T15:02:40.141Z,6.97
2023-04-05T15:05:21.463Z,6.73
2023-04-05T15:07:52.461Z,6.58
2023-04-05T15:10:19.657Z,6.47
2023-04-05T15:19:32.838Z,6.09
2023-04-05T15:28:43.254Z,5.89
2023-04-05T15:31:14.300Z,5.83
2023-04-05T15:33:50.477Z,5.77
2023-04-05T15:36:19.300Z,5.70
2023-04-05T15:38:47.212Z,5.65
2023-04-05T15:41:13.949Z,5.63
2023-04-05T15:43:40.926Z,5.61
2023-04-05T15:46:07.946Z,5.60
2023-04-05T15:48:37.059Z,5.58
2023-04-05T15:51:04.205Z,5.51
2023-04-05T15:53:31.180Z,5.47
2023-04-05T15:55:58.107Z,5.39
2023-04-05T15:58:32.288Z,5.37
2023-04-05T16:00:59.017Z,5.32
2023-04-05T16:03:25.772Z,5.26
2023-04-05T16:05:54.808Z,5.22
2023-04-05T16:08:21.493Z,5.19
2023-04-05T16:10:50.654Z,5.18
2023-04-05T16:13:19.319Z,5.15
2023-04-05T16:15:46.254Z,5.11
2023-04-05T16:18:13.816Z,5.11
2023-04-05T16:20:41.542Z,5.14
2023-04-05T16:23:09.019Z,5.12
2023-04-05T16:25:36.139Z,5.09
2023-04-05T16:28:05.897Z,5.10
2023-04-05T16:30:33.857Z,5.10
2023-04-05T16:33:01.126Z,5.09
2023-04-05T16:35:30.840Z,5.05
2023-04-05T16:37:58.053Z,5.01
2023-04-05T16:40:25.037Z,4.95
2023-04-05T16:42:55.202Z,4.88
2023-04-05T16:45:22.363Z,4.86
2023-04-05T16:47:49.741Z,4.84
2023-04-05T16:50:17.917Z,4.80
2023-04-05T16:52:47.827Z,4.75
2023-04-05T16:55:57.496Z,4.74
2023-04-05T16:58:38.104Z,4.71
2023-04-05T17:01:05.382Z,4.71
2023-04-05T17:03:35.680Z,4.70
2023-04-05T17:06:02.895Z,4.66
2023-04-05T17:08:29.667Z,4.60
2023-04-05T17:10:56.790Z,4.56
2023-04-05T17:13:26.898Z,4.52
2023-04-05T17:15:59.787Z,4.47
2023-04-05T17:18:31.850Z,4.47
2023-04-05T17:21:02.980Z,4.44
2023-04-05T17:23:29.885Z,4.42
2023-04-05T17:25:57.060Z,4.41
2023-04-05T17:28:25.244Z,4.39
2023-04-05T17:30:52.182Z,4.36
2023-04-05T17:33:19.419Z,4.34
2023-04-05T17:35:47.181Z,4.31
2023-04-05T17:38:16.305Z,4.26
2023-04-05T17:40:45.623Z,4.24
2023-04-05T17:43:13.090Z,4.20
2023-04-05T17:45:43.940Z,4.15
2023-04-05T17:48:11.700Z,4.12
2023-04-05T17:50:38.970Z,4.10
2023-04-05T17:53:06.029Z,4.09
2023-04-05T17:55:43.756Z,4.07
2023-04-05T17:58:11.734Z,4.06
2023-04-05T18:00:42.797Z,4.04
2023-04-05T18:03:10.381Z,4.01
2023-04-05T18:05:37.717Z,3.98
2023-04-05T18:08:05.108Z,3.95
2023-04-05T18:10:33.461Z,3.91
2023-04-05T18:13:01.566Z,3.88
2023-04-05T18:15:30.121Z,3.85
2023-04-05T18:17:57.914Z,3.81
2023-04-05T18:20:25.378Z,3.80
2023-04-05T18:22:52.803Z,3.77
2023-04-05T18:25:36.378Z,3.71
2023-04-05T18:28:15.577Z,3.71
2023-04-05T18:30:52.126Z,3.67
2023-04-05T18:33:22.051Z,3.64
2023-04-05T18:35:50.212Z,3.63
2023-04-05T18:38:19.009Z,3.61
2023-04-05T18:40:49.902Z,3.58
2023-04-05T18:43:19.883Z,3.56
2023-04-05T18:45:53.935Z,3.57
2023-04-05T18:48:23.853Z,3.54
2023-04-05T19:37:50.301Z,2.95
2023-04-05T19:40:20.207Z,2.93
2023-04-05T19:42:51.913Z,2.91
2023-04-05T19:45:28.069Z,2.87
2023-04-05T19:47:56.939Z,2.83
2023-04-05T19:50:59.867Z,2.80
2023-04-05T19:53:40.686Z,2.77
2023-04-05T19:56:13.292Z,2.75
2023-04-05T19:58:42.214Z,2.72
2023-04-05T20:01:09.302Z,2.71
2023-04-05T20:03:41.517Z,2.68
2023-04-05T20:06:08.393Z,2.66
2023-04-05T20:08:38.740Z,2.63
2023-04-05T20:11:09.101Z,2.60
2023-04-05T20:13:49.063Z,2.57
2023-04-05T20:16:22.484Z,2.56
2023-04-05T20:18:49.671Z,2.50
2023-04-05T20:21:17.431Z,2.45
2023-04-05T20:23:47.140Z,2.42
2023-04-05T20:26:16.492Z,2.39
2023-04-05T20:28:53.977Z,2.37
2023-04-05T20:31:40.710Z,2.35
2023-04-05T20:34:19.223Z,2.33
2023-04-05T20:36:51.169Z,2.29
2023-04-05T20:39:18.373Z,2.28
2023-04-05T20:41:46.136Z,2.25
2023-04-05T20:44:13.145Z,2.24
2023-04-05T20:46:42.507Z,2.22
2023-04-05T20:49:11.633Z,2.20
2023-04-05T20:51:39.953Z,2.19
2023-04-05T20:54:09.435Z,2.19
2023-04-05T20:56:54.725Z,2.19
2023-04-05T20:59:25.961Z,2.20
2023-04-05T21:02:43.493Z,2.20
2023-04-05T21:09:32.527Z,2.12
2023-04-05T21:12:07.812Z,2.08
2023-04-05T21:14:34.819Z,2.06
2023-04-05T21:17:02.727Z,2.03
2023-04-05T21:19:29.780Z,2.01
2023-04-05T21:21:56.727Z,1.99
2023-04-05T21:24:23.909Z,1.95
2023-04-05T21:26:51.058Z,1.93
2023-04-05T21:29:48.240Z,1.90
2023-04-05T21:33:17.606Z,1.88
2023-04-05T22:00:35.318Z,1.76
2023-04-05T22:03:07.311Z,1.75
2023-04-05T22:12:46.212Z,1.72
2023-04-05T22:15:13.623Z,1.74
2023-04-05T22:17:40.918Z,1.76
2023-04-05T22:20:49.857Z,1.78
2023-04-05T22:23:16.896Z,1.78
2023-04-05T22:25:44.042Z,1.76
2023-04-05T22:28:11.156Z,1.74
2023-04-05T22:33:09.334Z,1.70
2023-04-05T22:35:36.276Z,1.66
2023-04-05T22:38:38.464Z,1.65
2023-04-05T22:41:05.488Z,1.63
2023-04-05T23:41:12.175Z,1.71
2023-04-05T23:44:20.213Z,1.71
2023-04-05T23:46:47.578Z,1.71
2023-04-05T23:49:34.696Z,1.70
2023-04-05T23:52:02.263Z,1.70
2023-04-05T23:54:30.828Z,1.68
2023-04-05T23:57:02.581Z,1.67
2023-04-05T23:59:30.380Z,1.66
